Flight Briefing for CPX803

Departure Arrival
Norfolk Naval Station (Chambers Field) (KNGU)
Click to view FAA NOTAMS
Guantánamo Bay Naval Air Station (MUGM)
Click to view FAA NOTAMS
Departure Time Arrival Time
N/A N/A
Aircraft Distance
B757-200SF 1025.27nm
Departure METAR Arrival METAR
KNGU 151959Z 23009G19KT 10SM FEW190 OVC300 21/M02 A2974 RMK AO2 SLP071 T02111022 MUGM 151956Z 18008KT 9999 FEW035 FEW120 28/22 A2991 RMK SLP128 T02810218
Suggested Route
SWOPE ECG DIW IDOLS Y323 CARPX AR3 NUCAR Y374 RUMFO ZIN EASTP SOUTP SOUTP2


View recent IFR Routes data
Notes
USTRANSCOM CONTRACT FLIGHT | OVERFLIGHT OF CUBA PROHIBITED, SOUTP & EASTP FIXES MANDATORY

Charts and Procedures

Charts for KNGU
No chart available
Charts for MUGM
No chart available

Ventusky Weather